Time;durP1;ratioP1;P1;durP2;ratioP2;P2;SDS_P1;SDS_P2;PMS_P1;PMS_P2;Temp;Humidity;BMP_temperature;BMP_pressure;BME280_temperature;BME280_humidity;BME280_pressure;Samples;Min_cycle;Max_cycle;Signal;HPM_P1;HPM_P2
2023/08/12 00:01:33;;;;;;;13.33;7.40;;;21.50;1.00;;;;;;5006640;28;20205;-75
2023/08/12 00:03:59;;;;;;;11.30;6.87;;;21.40;1.00;;;;;;5007020;28;20181;-74
2023/08/12 00:06:24;;;;;;;9.27;6.67;;;21.40;1.00;;;;;;5006399;28;20259;-74
2023/08/12 00:08:50;;;;;;;10.67;7.33;;;21.50;1.00;;;;;;5006146;28;20181;-74
2023/08/12 00:11:15;;;;;;;9.13;6.63;;;21.50;1.00;;;;;;5004894;28;20205;-74
2023/08/12 00:13:41;;;;;;;10.10;6.97;;;21.60;1.00;;;;;;5005408;28;20178;-76
2023/08/12 00:16:06;;;;;;;12.97;7.00;;;21.40;1.00;;;;;;5004887;28;20182;-75
2023/08/12 00:18:36;;;;;;;9.20;7.20;;;21.40;1.00;;;;;;5006818;28;20174;-74
2023/08/12 00:21:12;;;;;;;9.33;6.53;;;21.40;1.00;;;;;;5004843;28;20181;-76
2023/08/12 00:23:40;;;;;;;10.67;6.40;;;21.40;1.00;;;;;;5007648;28;20432;-75
2023/08/12 00:26:06;;;;;;;9.60;6.53;;;21.40;1.00;;;;;;5006861;28;20563;-75
2023/08/12 00:28:32;;;;;;;13.40;6.80;;;21.40;1.00;;;;;;5005664;28;20444;-75
2023/08/12 00:30:57;;;;;;;11.53;6.40;;;21.40;1.00;;;;;;5007086;28;20471;-75
2023/08/12 00:33:23;;;;;;;9.30;6.43;;;21.50;1.00;;;;;;5005562;28;20220;-74
2023/08/12 00:35:48;;;;;;;8.90;6.90;;;21.40;1.00;;;;;;5006750;28;20178;-75
2023/08/12 00:38:14;;;;;;;9.47;6.97;;;21.50;1.00;;;;;;5006451;28;20189;-74
2023/08/12 00:40:39;;;;;;;10.73;6.60;;;21.40;1.00;;;;;;5005869;28;20178;-76
2023/08/12 00:43:05;;;;;;;9.80;6.50;;;21.50;1.00;;;;;;5005974;28;20202;-75
2023/08/12 00:45:31;;;;;;;11.67;6.80;;;21.40;1.00;;;;;;5007016;28;20193;-75
2023/08/12 00:47:57;;;;;;;10.10;6.90;;;21.40;1.00;;;;;;5006213;28;20829;-75
2023/08/12 00:50:22;;;;;;;8.43;6.20;;;21.40;1.00;;;;;;5006831;28;20201;-75
2023/08/12 00:52:49;;;;;;;10.43;7.30;;;21.40;1.00;;;;;;5010725;28;20294;-75
2023/08/12 00:55:16;;;;;;;9.47;6.43;;;21.40;1.00;;;;;;5010160;28;20174;-75
2023/08/12 00:57:42;;;;;;;11.37;6.73;;;21.40;1.00;;;;;;5011797;28;20408;-75
2023/08/12 01:00:08;;;;;;;8.20;6.77;;;21.40;1.00;;;;;;5009103;28;20791;-74
2023/08/12 01:02:34;;;;;;;12.83;6.63;;;21.40;1.00;;;;;;5011660;28;20197;-75
2023/08/12 01:04:59;;;;;;;10.77;7.10;;;21.50;1.00;;;;;;5009947;28;20416;-75
2023/08/12 01:07:25;;;;;;;8.60;6.57;;;21.50;1.00;;;;;;5009067;28;20209;-74
2023/08/12 01:09:50;;;;;;;10.40;7.40;;;21.50;1.00;;;;;;5011425;28;20213;-75
2023/08/12 01:12:39;;;;;;;8.73;6.30;;;21.60;1.00;;;;;;5011102;28;20284;-74
2023/08/12 01:15:16;;;;;;;14.80;6.37;;;21.60;1.00;;;;;;5011265;28;20193;-75
2023/08/12 01:17:43;;;;;;;8.53;6.57;;;21.70;1.00;;;;;;5011309;28;20462;-75
2023/08/12 01:20:14;;;;;;;11.60;6.60;;;21.70;1.00;;;;;;5010281;28;20524;-75
2023/08/12 01:22:40;;;;;;;12.33;7.07;;;21.70;1.00;;;;;;5009177;28;20831;-75
2023/08/12 01:25:07;;;;;;;12.33;6.40;;;21.70;1.00;;;;;;5010895;28;20420;-75
2023/08/12 01:27:35;;;;;;;9.43;7.00;;;21.80;1.00;;;;;;5010887;28;20467;-75
2023/08/12 01:30:01;;;;;;;12.07;6.60;;;21.80;1.00;;;;;;5010542;28;20457;-75
2023/08/12 01:32:53;;;;;;;16.33;7.00;;;21.80;1.00;;;;;;5011097;28;20437;-75
2023/08/12 01:35:29;;;;;;;10.20;6.40;;;21.80;1.00;;;;;;5008052;28;20425;-75
2023/08/12 01:37:58;;;;;;;11.07;6.40;;;21.80;1.00;;;;;;5009819;28;20425;-75
2023/08/12 01:40:25;;;;;;;9.27;6.20;;;21.90;1.00;;;;;;5008461;28;20424;-75
2023/08/12 01:42:52;;;;;;;8.80;6.30;;;21.90;1.00;;;;;;5011046;28;20448;-75
2023/08/12 01:45:19;;;;;;;8.03;6.40;;;22.00;1.00;;;;;;5010699;28;20420;-74
2023/08/12 01:47:44;;;;;;;17.33;6.73;;;21.90;1.00;;;;;;5009055;28;20409;-74
2023/08/12 01:50:10;;;;;;;7.70;6.20;;;22.10;1.00;;;;;;5009066;28;20882;-74
2023/08/12 01:52:36;;;;;;;7.57;5.87;;;21.90;1.00;;;;;;5009346;28;20202;-74
2023/08/12 01:55:01;;;;;;;9.33;6.10;;;21.90;1.00;;;;;;5010525;28;20178;-75
2023/08/12 01:57:27;;;;;;;8.27;6.10;;;21.90;1.00;;;;;;5009175;28;20177;-75
2023/08/12 01:59:52;;;;;;;8.83;5.90;;;22.00;1.00;;;;;;5009027;28;20190;-74
2023/08/12 02:02:18;;;;;;;8.30;5.30;;;21.90;1.00;;;;;;5008886;28;20351;-74
2023/08/12 02:04:44;;;;;;;10.30;6.10;;;21.90;1.00;;;;;;5008454;28;20186;-75
2023/08/12 02:07:09;;;;;;;13.23;6.03;;;21.90;1.00;;;;;;5008777;28;20255;-74
2023/08/12 02:09:35;;;;;;;12.30;5.80;;;22.00;1.00;;;;;;5010344;28;20702;-74
2023/08/12 02:12:01;;;;;;;7.60;5.33;;;22.10;1.00;;;;;;5010084;28;20308;-75
2023/08/12 02:14:26;;;;;;;14.00;6.53;;;22.10;1.00;;;;;;5008941;28;20178;-74
2023/08/12 02:16:52;;;;;;;8.57;5.93;;;22.10;1.00;;;;;;5010403;28;20167;-75
2023/08/12 02:19:17;;;;;;;8.87;6.20;;;23.60;1.00;;;;;;5007208;28;20179;-75
2023/08/12 02:21:44;;;;;;;8.57;5.73;;;22.00;1.00;;;;;;5009169;28;20292;-75
2023/08/12 02:24:09;;;;;;;9.77;5.80;;;22.00;1.00;;;;;;5009431;28;20265;-75
2023/08/12 02:26:37;;;;;;;7.50;5.60;;;22.00;1.00;;;;;;5008586;28;20495;-75
2023/08/12 02:29:02;;;;;;;9.83;5.90;;;21.90;1.00;;;;;;5009862;28;20228;-75
2023/08/12 02:31:28;;;;;;;11.40;6.37;;;21.90;1.00;;;;;;5010025;28;20823;-75
2023/08/12 02:33:53;;;;;;;10.00;6.13;;;21.90;1.00;;;;;;5009637;28;20182;-75
2023/08/12 02:36:19;;;;;;;9.27;5.90;;;21.80;1.00;;;;;;5007632;28;20186;-74
2023/08/12 02:38:44;;;;;;;7.37;5.47;;;22.00;1.00;;;;;;5007759;28;20231;-74
2023/08/12 02:41:10;;;;;;;8.20;5.63;;;21.80;1.00;;;;;;5007464;28;20236;-74
2023/08/12 02:43:35;;;;;;;7.90;5.70;;;22.00;1.00;;;;;;5005582;28;20189;-75
2023/08/12 02:46:01;;;;;;;9.03;6.23;;;21.80;1.00;;;;;;5005348;28;20197;-75
2023/08/12 02:48:27;;;;;;;6.60;5.60;;;21.80;1.00;;;;;;5008020;28;20177;-74
2023/08/12 02:50:52;;;;;;;9.83;6.10;;;21.80;1.00;;;;;;5007048;28;20213;-74
2023/08/12 02:53:18;;;;;;;11.60;6.33;;;21.90;1.00;;;;;;5006147;28;20676;-74
2023/08/12 02:55:45;;;;;;;9.70;6.17;;;22.00;1.00;;;;;;5007104;28;20178;-74
2023/08/12 02:58:10;;;;;;;6.80;5.67;;;21.90;1.00;;;;;;5006107;28;20657;-75
2023/08/12 03:00:36;;;;;;;8.30;5.93;;;21.90;1.00;;;;;;5002761;28;20439;-74
2023/08/12 03:03:02;;;;;;;8.07;6.50;;;21.90;1.00;;;;;;5005108;28;20221;-74
2023/08/12 03:05:27;;;;;;;6.60;5.77;;;21.80;1.00;;;;;;5005182;28;20182;-75
2023/08/12 03:07:53;;;;;;;10.53;6.27;;;21.90;1.00;;;;;;5007591;28;20189;-74
2023/08/12 03:10:19;;;;;;;7.83;5.87;;;21.90;1.00;;;;;;5006631;28;20208;-75
2023/08/12 03:12:44;;;;;;;9.17;6.17;;;21.80;1.00;;;;;;5006442;28;20281;-74
2023/08/12 03:15:10;;;;;;;8.07;5.90;;;21.80;1.00;;;;;;5006096;28;20192;-74
2023/08/12 03:17:38;;;;;;;9.30;6.03;;;21.80;1.00;;;;;;5007198;28;20184;-75
2023/08/12 03:20:05;;;;;;;6.03;5.43;;;21.80;1.00;;;;;;5005988;28;20352;-75
2023/08/12 03:22:31;;;;;;;14.93;6.73;;;21.80;1.00;;;;;;5005442;28;20467;-75
2023/08/12 03:24:56;;;;;;;8.70;6.23;;;21.70;1.00;;;;;;5007687;28;20428;-76
2023/08/12 03:27:22;;;;;;;9.17;6.37;;;21.70;1.00;;;;;;5005041;28;20184;-75
2023/08/12 03:29:47;;;;;;;9.00;6.10;;;21.70;1.00;;;;;;5007496;28;20209;-75
2023/08/12 03:32:13;;;;;;;7.43;5.60;;;21.70;1.00;;;;;;5007412;28;20202;-75
2023/08/12 03:34:39;;;;;;;11.83;5.53;;;21.70;1.00;;;;;;5006262;28;20181;-75
2023/08/12 03:37:04;;;;;;;10.03;6.03;;;21.70;1.00;;;;;;5005732;28;20186;-76
2023/08/12 03:39:30;;;;;;;8.20;6.50;;;21.70;1.00;;;;;;5005151;28;20178;-75
2023/08/12 03:41:55;;;;;;;9.87;6.40;;;21.80;1.00;;;;;;5005710;28;20647;-76
2023/08/12 03:44:21;;;;;;;9.07;5.50;;;21.90;1.00;;;;;;5007347;28;20652;-75
2023/08/12 03:46:46;;;;;;;9.20;5.93;;;21.90;1.00;;;;;;5005312;28;20519;-75
2023/08/12 03:49:12;;;;;;;10.43;6.50;;;22.00;1.00;;;;;;5004608;28;20185;-75
2023/08/12 03:51:37;;;;;;;8.80;6.10;;;22.00;1.00;;;;;;5007497;28;20717;-75
2023/08/12 03:54:03;;;;;;;13.70;6.50;;;22.00;1.00;;;;;;5006265;28;20174;-75
2023/08/12 03:56:29;;;;;;;8.00;6.40;;;22.10;1.00;;;;;;5005499;28;20174;-75
2023/08/12 03:58:55;;;;;;;9.77;7.10;;;22.10;1.00;;;;;;5007850;28;20434;-75
2023/08/12 04:01:20;;;;;;;11.20;6.50;;;22.00;1.00;;;;;;5006102;28;20851;-75
2023/08/12 04:03:46;;;;;;;7.93;6.40;;;22.10;1.00;;;;;;5006478;28;20632;-75
2023/08/12 04:06:12;;;;;;;8.50;7.30;;;22.20;1.00;;;;;;5006140;28;20435;-75
2023/08/12 04:08:38;;;;;;;9.63;7.60;;;22.20;1.00;;;;;;5001988;28;20186;-75
2023/08/12 04:11:04;;;;;;;13.30;7.97;;;19.50;1.00;;;;;;5007181;28;20209;-75
2023/08/12 04:13:29;;;;;;;13.50;7.60;;;22.20;1.00;;;;;;5006508;28;20178;-74
2023/08/12 04:15:55;;;;;;;10.70;7.70;;;22.10;1.00;;;;;;5006881;28;20253;-75
2023/08/12 04:18:20;;;;;;;8.87;7.33;;;22.10;1.00;;;;;;5004246;28;20526;-75
2023/08/12 04:20:49;;;;;;;14.00;7.67;;;22.10;1.00;;;;;;5005494;28;20244;-75
2023/08/12 04:23:15;;;;;;;10.20;6.80;;;21.90;1.00;;;;;;5007523;28;20198;-75
2023/08/12 04:25:44;;;;;;;10.20;7.90;;;21.90;1.00;;;;;;5009710;28;20485;-75
2023/08/12 04:28:09;;;;;;;8.30;6.80;;;21.90;1.00;;;;;;5009693;28;20174;-76
2023/08/12 04:30:35;;;;;;;12.80;7.73;;;21.80;1.00;;;;;;5009142;28;20456;-75
2023/08/12 04:33:00;;;;;;;10.73;7.00;;;21.80;1.00;;;;;;5008915;28;20282;-75
2023/08/12 04:35:26;;;;;;;11.40;6.97;;;21.80;1.00;;;;;;5008497;28;20304;-75
2023/08/12 04:37:51;;;;;;;9.30;6.63;;;21.80;1.00;;;;;;5010913;28;20185;-75
2023/08/12 04:40:17;;;;;;;11.83;7.20;;;21.80;1.00;;;;;;5010138;28;20170;-74
2023/08/12 04:42:42;;;;;;;11.60;7.07;;;22.00;1.00;;;;;;5010845;28;20208;-75
2023/08/12 04:45:08;;;;;;;9.23;6.70;;;22.10;1.00;;;;;;5010207;28;20205;-75
2023/08/12 04:47:34;;;;;;;11.23;7.17;;;21.90;1.00;;;;;;5008211;28;20595;-75
2023/08/12 04:50:00;;;;;;;8.27;6.73;;;21.90;1.00;;;;;;5008165;28;20568;-74
2023/08/12 04:52:25;;;;;;;9.27;6.63;;;21.80;1.00;;;;;;5009457;28;20261;-75
2023/08/12 04:54:53;;;;;;;8.67;6.83;;;21.80;1.00;;;;;;5007264;28;20723;-74
2023/08/12 04:57:19;;;;;;;10.50;7.10;;;21.90;1.00;;;;;;5008930;28;20679;-75
2023/08/12 04:59:44;;;;;;;10.20;6.60;;;22.10;1.00;;;;;;5008565;28;20468;-75
2023/08/12 05:02:10;;;;;;;10.90;7.37;;;21.90;1.00;;;;;;5006811;28;20202;-75
2023/08/12 05:04:35;;;;;;;13.37;7.20;;;22.00;1.00;;;;;;5007201;28;20237;-74
2023/08/12 05:07:01;;;;;;;9.10;7.40;;;22.00;1.00;;;;;;5009678;28;20593;-75
2023/08/12 05:09:26;;;;;;;9.00;6.63;;;22.00;1.00;;;;;;5007054;28;20177;-75
2023/08/12 05:11:52;;;;;;;9.37;7.33;;;22.00;1.00;;;;;;5008232;28;20205;-74
2023/08/12 05:14:17;;;;;;;10.43;8.00;;;22.10;1.00;;;;;;5007712;28;20177;-75
2023/08/12 05:16:43;;;;;;;12.37;7.13;;;22.10;1.00;;;;;;5009278;28;20182;-75
2023/08/12 05:19:08;;;;;;;9.00;6.93;;;22.20;1.00;;;;;;5007576;28;20253;-75
2023/08/12 05:21:34;;;;;;;10.93;6.93;;;22.20;1.00;;;;;;5007472;28;20271;-75
2023/08/12 05:23:59;;;;;;;9.77;6.83;;;22.20;1.00;;;;;;5008931;28;20178;-75
2023/08/12 05:26:25;;;;;;;8.30;6.97;;;22.20;1.00;;;;;;5008614;28;20174;-75
2023/08/12 05:28:50;;;;;;;8.03;7.10;;;22.20;1.00;;;;;;5008909;28;20260;-75
2023/08/12 05:31:16;;;;;;;11.43;6.70;;;22.40;1.00;;;;;;5008586;28;20261;-75
2023/08/12 05:33:41;;;;;;;11.87;7.10;;;22.50;1.00;;;;;;5006586;28;20174;-75
2023/08/12 05:36:07;;;;;;;11.40;6.93;;;22.50;1.00;;;;;;5006573;28;20260;-75
2023/08/12 05:38:32;;;;;;;7.87;6.80;;;22.60;1.00;;;;;;5006538;28;20589;-76
2023/08/12 05:40:58;;;;;;;11.47;7.70;;;;;;;;;;5009438;28;20186;-75
2023/08/12 05:43:23;;;;;;;9.80;7.57;;;22.30;1.00;;;;;;5008674;28;20178;-75
2023/08/12 05:45:49;;;;;;;8.83;7.53;;;22.70;1.00;;;;;;5007902;28;20196;-74
2023/08/12 05:48:14;;;;;;;8.07;6.83;;;22.40;1.00;;;;;;5009470;28;20174;-75
2023/08/12 05:50:40;;;;;;;12.33;7.30;;;22.50;1.00;;;;;;5009375;28;20197;-75
2023/08/12 05:53:06;;;;;;;10.40;6.73;;;22.50;1.00;;;;;;5007291;28;20957;-75
2023/08/12 05:55:34;;;;;;;9.87;7.30;;;22.70;1.00;;;;;;5009043;28;20183;-75
2023/08/12 05:58:00;;;;;;;12.13;7.20;;;22.40;1.00;;;;;;5008239;28;20722;-75
2023/08/12 06:00:25;;;;;;;9.00;7.40;;;22.40;1.00;;;;;;5007990;28;20429;-75
2023/08/12 06:02:51;;;;;;;8.30;6.97;;;22.50;1.00;;;;;;5007548;28;20217;-74
2023/08/12 06:05:16;;;;;;;11.80;7.20;;;23.00;1.00;;;;;;5006562;28;20185;-75
2023/08/12 06:07:42;;;;;;;9.13;6.70;;;22.70;1.00;;;;;;5007514;28;20923;-75
2023/08/12 06:10:08;;;;;;;10.50;7.33;;;22.90;1.00;;;;;;5008134;28;20287;-75
2023/08/12 06:12:33;;;;;;;12.87;7.60;;;23.00;1.00;;;;;;5008219;28;20225;-75
2023/08/12 06:14:59;;;;;;;9.13;7.00;;;23.20;1.00;;;;;;5006810;28;20178;-75
2023/08/12 06:17:24;;;;;;;9.77;6.73;;;23.20;1.00;;;;;;5007495;28;20242;-75
2023/08/12 06:19:50;;;;;;;9.47;7.37;;;23.30;1.00;;;;;;5007345;28;20256;-74
2023/08/12 06:22:15;;;;;;;10.03;6.60;;;23.40;1.00;;;;;;5014122;28;20261;-75
2023/08/12 06:24:41;;;;;;;11.97;6.83;;;23.30;1.00;;;;;;5006916;28;20178;-75
2023/08/12 06:27:06;;;;;;;9.87;7.20;;;23.30;1.00;;;;;;5009162;28;20170;-75
2023/08/12 06:29:32;;;;;;;8.50;6.10;;;23.50;1.00;;;;;;5008618;28;20536;-75
2023/08/12 06:31:57;;;;;;;7.90;6.10;;;23.30;1.00;;;;;;5013268;28;20201;-75
2023/08/12 06:34:23;;;;;;;6.97;5.90;;;23.30;1.00;;;;;;5010397;28;20220;-75
2023/08/12 06:36:48;;;;;;;7.00;5.80;;;23.30;1.00;;;;;;5008013;28;20170;-76
2023/08/12 06:39:14;;;;;;;11.07;6.03;;;23.50;1.00;;;;;;5007599;28;20174;-76
2023/08/12 06:41:39;;;;;;;9.03;5.97;;;23.70;1.00;;;;;;5006972;28;20202;-75
2023/08/12 06:44:06;;;;;;;11.00;6.23;;;23.80;1.00;;;;;;5009087;28;20166;-75
2023/08/12 06:46:31;;;;;;;8.17;6.50;;;24.00;1.00;;;;;;5004995;28;20197;-75
2023/08/12 06:48:59;;;;;;;8.97;6.40;;;24.20;1.00;;;;;;4999279;28;20433;-75
2023/08/12 06:51:24;;;;;;;9.47;6.47;;;24.50;1.00;;;;;;5007755;28;20727;-74
2023/08/12 06:53:49;;;;;;;7.43;6.00;;;24.70;1.00;;;;;;5005989;28;20429;-75
2023/08/12 06:56:15;;;;;;;12.67;6.90;;;24.70;1.00;;;;;;5006716;28;20177;-75
2023/08/12 06:58:41;;;;;;;11.07;6.20;;;24.70;1.00;;;;;;5007252;28;20189;-75
2023/08/12 07:01:06;;;;;;;9.20;6.20;;;24.80;1.00;;;;;;5006683;28;20186;-76
2023/08/12 07:03:32;;;;;;;12.10;7.03;;;24.90;1.00;;;;;;5006492;28;20200;-75
2023/08/12 07:05:58;;;;;;;9.80;7.10;;;24.80;1.00;;;;;;5007298;28;20656;-75
2023/08/12 07:08:23;;;;;;;10.73;6.80;;;24.70;1.00;;;;;;5008290;28;20435;-76
2023/08/12 07:10:49;;;;;;;11.00;7.10;;;24.70;1.00;;;;;;5004934;28;20805;-75
2023/08/12 07:13:15;;;;;;;11.33;7.10;;;24.80;1.00;;;;;;5005977;28;20449;-74
2023/08/12 07:15:40;;;;;;;10.10;6.90;;;25.00;1.00;;;;;;5006045;28;20227;-75
2023/08/12 07:18:06;;;;;;;10.53;7.10;;;25.10;1.00;;;;;;5005285;28;20269;-75
2023/08/12 07:20:31;;;;;;;11.50;7.43;;;25.30;1.00;;;;;;5003890;28;20217;-75
2023/08/12 07:22:57;;;;;;;10.00;7.47;;;25.30;1.00;;;;;;5007335;28;20202;-75
2023/08/12 07:25:22;;;;;;;8.13;7.20;;;25.30;1.00;;;;;;5007700;28;20612;-75
2023/08/12 07:27:48;;;;;;;10.47;7.50;;;25.30;1.00;;;;;;5007160;28;20193;-75
2023/08/12 07:30:14;;;;;;;9.60;6.93;;;25.40;1.00;;;;;;5006091;28;20201;-75
2023/08/12 07:32:39;;;;;;;9.40;7.13;;;25.30;1.00;;;;;;5005614;28;20628;-75
2023/08/12 07:35:05;;;;;;;10.97;8.73;;;25.30;1.00;;;;;;5008260;28;20189;-75
2023/08/12 07:37:31;;;;;;;10.53;7.97;;;25.50;1.00;;;;;;5005249;28;20265;-75
2023/08/12 07:39:57;;;;;;;8.70;7.43;;;25.60;1.00;;;;;;5007679;28;20532;-76
2023/08/12 07:42:22;;;;;;;10.00;7.40;;;25.60;1.00;;;;;;5005128;28;20244;-75
2023/08/12 07:44:48;;;;;;;9.60;7.63;;;25.60;1.00;;;;;;5007443;28;20178;-75
2023/08/12 07:47:15;;;;;;;11.43;8.03;;;25.60;1.00;;;;;;5007939;28;20193;-75
2023/08/12 07:49:41;;;;;;;9.30;7.50;;;25.60;1.00;;;;;;5004814;28;20178;-75
2023/08/12 07:52:06;;;;;;;14.10;7.60;;;25.80;1.00;;;;;;5004207;28;20822;-75
2023/08/12 07:54:32;;;;;;;12.43;8.00;;;26.10;1.00;;;;;;5004972;28;20231;-75
2023/08/12 07:56:57;;;;;;;11.13;7.00;;;26.20;1.00;;;;;;5006492;28;20298;-75
2023/08/12 07:59:23;;;;;;;9.13;7.70;;;26.30;1.00;;;;;;5007950;28;20182;-75
2023/08/12 08:01:48;;;;;;;8.47;7.40;;;26.40;1.00;;;;;;5010136;28;20222;-75
2023/08/12 08:04:14;;;;;;;8.47;7.47;;;26.50;1.00;;;;;;5011359;28;20676;-75
2023/08/12 08:06:39;;;;;;;8.87;7.63;;;26.70;1.00;;;;;;5010922;28;20192;-75
2023/08/12 08:09:05;;;;;;;9.80;7.33;;;26.80;1.00;;;;;;5025369;28;20192;-75
2023/08/12 08:11:31;;;;;;;11.23;7.93;;;27.00;1.00;;;;;;5010590;28;20216;-75
2023/08/12 08:13:58;;;;;;;10.93;6.57;;;26.60;1.00;;;;;;5011722;28;20339;-77
2023/08/12 08:16:23;;;;;;;9.13;7.70;;;28.20;1.00;;;;;;5013572;28;20178;-77
2023/08/12 08:18:49;;;;;;;15.47;7.00;;;29.40;1.00;;;;;;5014121;28;20181;-78
2023/08/12 08:21:14;;;;;;;8.15;7.28;;;30.80;1.00;;;;;;5009332;28;20181;-78
2023/08/12 08:23:41;;;;;;;8.95;7.10;;;30.80;1.00;;;;;;5008152;28;20681;-77
2023/08/12 08:26:07;;;;;;;8.15;6.43;;;31.20;1.00;;;;;;5008688;28;20264;-78
2023/08/12 08:28:32;;;;;;;9.65;6.80;;;30.90;1.00;;;;;;5019096;28;20214;-76
2023/08/12 08:30:58;;;;;;;9.48;7.53;;;30.60;1.00;;;;;;5013419;28;20209;-77
2023/08/12 08:33:26;;;;;;;12.85;7.65;;;30.40;1.00;;;;;;5016743;28;20726;-77
2023/08/12 08:35:51;;;;;;;9.20;6.72;;;30.20;1.00;;;;;;5012717;28;20201;-78
2023/08/12 08:38:17;;;;;;;8.18;6.72;;;31.10;1.00;;;;;;5012799;28;20595;-77
2023/08/12 08:40:43;;;;;;;8.40;6.85;;;31.30;1.00;;;;;;5012629;28;20242;-76
2023/08/12 08:43:09;;;;;;;10.32;7.70;;;30.80;1.00;;;;;;5013551;28;20197;-77
2023/08/12 08:45:35;;;;;;;11.38;7.03;;;30.70;1.00;;;;;;5016564;28;20670;-77
2023/08/12 08:48:02;;;;;;;7.30;6.60;;;31.70;1.00;;;;;;5012102;28;20257;-77
2023/08/12 08:50:31;;;;;;;7.78;6.97;;;33.20;1.00;;;;;;5011400;28;20202;-76
2023/08/12 08:52:57;;;;;;;11.23;7.18;;;33.90;1.00;;;;;;5012089;28;20285;-77
2023/08/12 08:55:23;;;;;;;7.05;6.35;;;34.40;1.00;;;;;;5012541;28;20249;-77
2023/08/12 08:57:49;;;;;;;11.05;7.13;;;34.50;1.00;;;;;;5010907;28;20232;-77
2023/08/12 09:00:18;;;;;;;8.32;7.30;;;33.50;1.00;;;;;;5012824;28;20240;-78
2023/08/12 09:02:47;;;;;;;8.60;7.00;;;33.00;1.00;;;;;;5011762;28;20276;-77
2023/08/12 09:05:14;;;;;;;9.77;6.88;;;32.50;1.00;;;;;;5011355;28;20174;-77
2023/08/12 09:07:41;;;;;;;13.32;7.30;;;32.60;1.00;;;;;;5012176;28;20182;-77
2023/08/12 09:10:08;;;;;;;9.20;7.07;;;32.40;1.00;;;;;;5011806;28;20206;-77
2023/08/12 09:12:34;;;;;;;11.30;6.82;;;32.10;1.00;;;;;;5010547;28;20213;-77
2023/08/12 09:14:59;;;;;;;8.68;7.15;;;32.10;1.00;;;;;;5012427;28;20252;-77
2023/08/12 09:17:25;;;;;;;8.43;6.50;;;32.00;1.00;;;;;;5010939;28;20249;-77
2023/08/12 09:19:51;;;;;;;8.45;6.68;;;33.10;1.00;;;;;;5009337;28;20200;-76
2023/08/12 09:22:18;;;;;;;9.18;7.10;;;33.80;1.00;;;;;;5011628;28;20256;-76
2023/08/12 09:24:44;;;;;;;8.95;6.80;;;34.20;1.00;;;;;;5011935;28;20178;-75
2023/08/12 09:27:10;;;;;;;7.43;6.63;;;34.40;1.00;;;;;;5011765;28;20190;-76
2023/08/12 09:29:36;;;;;;;8.20;7.28;;;35.20;1.00;;;;;;5010770;28;20194;-76
2023/08/12 09:32:18;;;;;;;11.15;6.90;;;35.30;1.00;;;;;;5011273;28;20213;-76
2023/08/12 09:34:54;;;;;;;8.25;6.45;;;35.50;1.00;;;;;;5010247;28;20178;-76
2023/08/12 09:37:23;;;;;;;7.88;6.82;;;36.70;1.00;;;;;;5010545;28;20253;-76
2023/08/12 09:39:49;;;;;;;7.82;6.30;;;36.60;1.00;;;;;;5010013;28;20182;-77
2023/08/12 09:42:15;;;;;;;12.07;7.07;;;36.50;1.00;;;;;;5010974;28;20248;-76
2023/08/12 09:44:41;;;;;;;8.13;6.80;;;37.10;1.00;;;;;;5011506;28;20212;-76
2023/08/12 09:47:10;;;;;;;9.68;7.10;;;37.80;1.00;;;;;;5005089;28;20204;-75
2023/08/12 09:49:37;;;;;;;11.13;6.45;;;38.40;1.00;;;;;;5010748;28;20257;-75
2023/08/12 09:52:04;;;;;;;10.77;6.13;;;38.40;1.00;;;;;;5011042;28;20301;-77
2023/08/12 09:54:34;;;;;;;8.57;6.70;;;38.60;1.00;;;;;;5009359;28;20170;-76
2023/08/12 09:57:02;;;;;;;8.25;6.40;;;38.50;1.00;;;;;;5004882;28;20264;-76
2023/08/12 09:59:31;;;;;;;7.50;5.93;;;38.30;1.00;;;;;;5007800;28;20178;-76
2023/08/12 10:01:57;;;;;;;8.88;6.50;;;38.90;1.00;;;;;;5009150;28;20206;-76
2023/08/12 10:04:27;;;;;;;8.52;6.70;;;39.00;1.00;;;;;;5007866;28;20547;-77
2023/08/12 10:06:53;;;;;;;13.43;6.63;;;38.90;1.00;;;;;;5001808;28;20201;-76
2023/08/12 10:09:19;;;;;;;13.55;6.50;;;38.20;1.00;;;;;;5010218;28;20561;-76
2023/08/12 10:11:46;;;;;;;12.00;6.82;;;37.20;1.00;;;;;;5007604;28;20219;-75
2023/08/12 10:14:13;;;;;;;9.25;6.78;;;35.80;1.00;;;;;;5009302;28;20174;-76
2023/08/12 10:16:39;;;;;;;11.75;7.07;;;34.80;1.00;;;;;;5006885;28;20186;-77
2023/08/12 10:19:06;;;;;;;9.20;6.72;;;35.00;1.00;;;;;;5006286;28;20186;-76
2023/08/12 10:21:32;;;;;;;8.52;6.50;;;36.30;1.00;;;;;;5010489;28;20197;-77
2023/08/12 10:24:02;;;;;;;11.90;7.10;;;37.30;1.00;;;;;;5006358;28;20252;-77
2023/08/12 10:26:29;;;;;;;7.80;6.45;;;37.30;1.00;;;;;;5008872;28;20254;-77
2023/08/12 10:28:56;;;;;;;7.07;6.38;;;36.30;1.00;;;;;;5008065;28;20196;-76
2023/08/12 10:31:21;;;;;;;7.93;7.13;;;35.60;1.00;;;;;;5010531;28;20198;-76
2023/08/12 10:33:49;;;;;;;10.35;7.75;;;34.50;1.00;;;;;;5008824;28;20256;-76
2023/08/12 10:36:16;;;;;;;9.07;7.18;;;33.30;1.00;;;;;;5012332;28;20174;-76
2023/08/12 10:38:43;;;;;;;8.05;6.78;;;32.60;1.00;;;;;;5012054;28;20180;-77
2023/08/12 10:41:18;;;;;;;10.00;7.25;;;31.80;1.00;;;;;;5010709;28;20185;-76
2023/08/12 10:43:53;;;;;;;10.20;7.90;;;31.80;1.00;;;;;;5013585;28;20270;-77
2023/08/12 10:46:23;;;;;;;10.55;7.75;;;32.00;1.00;;;;;;5003496;28;20165;-76
2023/08/12 10:49:07;;;;;;;8.05;7.22;;;32.20;1.00;;;;;;5010178;28;20645;-76
2023/08/12 10:51:54;;;;;;;12.00;7.40;;;33.60;1.00;;;;;;5008815;28;20219;-77
2023/08/12 10:54:30;;;;;;;13.63;7.60;;;34.30;1.00;;;;;;5003404;28;20173;-76
2023/08/12 10:57:01;;;;;;;8.32;7.35;;;34.70;1.00;;;;;;5007638;28;20176;-76
2023/08/12 10:59:45;;;;;;;8.55;7.65;;;35.30;1.00;;;;;;5010160;28;20174;-71
2023/08/12 11:02:43;;;;;;;9.95;7.85;;;35.40;1.00;;;;;;5009089;28;20778;-76
2023/08/12 11:05:10;;;;;;;9.73;7.72;;;34.60;1.00;;;;;;4994089;28;20205;-76
2023/08/12 11:08:05;;;;;;;8.50;7.70;;;33.60;1.00;;;;;;5010250;28;20276;-76
2023/08/12 11:10:33;;;;;;;8.85;7.95;;;32.50;1.00;;;;;;5010448;28;20255;-74
2023/08/12 11:12:59;;;;;;;10.85;8.20;;;31.80;1.00;;;;;;5008591;28;20198;-75
2023/08/12 11:15:46;;;;;;;11.95;7.95;;;30.90;1.00;;;;;;5010238;28;20177;-76
2023/08/12 11:18:16;;;;;;;10.57;8.48;;;30.20;1.00;;;;;;5009513;28;20169;-74
2023/08/12 11:20:42;;;;;;;9.23;8.32;;;29.70;1.00;;;;;;5006718;28;20174;-74
2023/08/12 11:23:09;;;;;;;11.88;8.20;;;29.20;1.00;;;;;;5007196;28;20201;-74
2023/08/12 11:25:37;;;;;;;10.43;8.38;;;28.90;1.00;;;;;;5009896;28;20174;-76
2023/08/12 11:28:04;;;;;;;11.07;8.13;;;28.60;1.00;;;;;;5009613;28;20188;-75
2023/08/12 11:30:29;;;;;;;13.90;9.07;;;28.30;1.00;;;;;;5009337;28;20522;-74
2023/08/12 11:32:55;;;;;;;10.93;9.07;;;28.00;1.00;;;;;;5009272;28;20201;-74
2023/08/12 11:35:23;;;;;;;9.57;8.40;;;27.70;1.00;;;;;;5009705;28;20459;-74
2023/08/12 11:37:52;;;;;;;14.20;9.90;;;27.50;1.00;;;;;;5009590;28;20174;-74
2023/08/12 11:40:18;;;;;;;12.03;9.60;;;27.00;1.00;;;;;;5007173;28;20170;-75
2023/08/12 11:42:46;;;;;;;11.20;9.73;;;26.80;1.00;;;;;;5009499;28;20200;-74
2023/08/12 11:45:18;;;;;;;14.97;9.67;;;26.50;1.00;;;;;;5009024;28;20794;-76
2023/08/12 11:47:47;;;;;;;11.47;9.57;;;26.10;1.00;;;;;;5009613;28;20182;-75
2023/08/12 11:50:13;;;;;;;10.80;9.30;;;25.90;1.00;;;;;;5008812;28;20240;-75
2023/08/12 11:52:39;;;;;;;13.07;10.30;;;25.70;1.00;;;;;;5009688;28;20616;-75
2023/08/12 11:55:06;;;;;;;19.20;12.50;;;25.50;1.00;;;;;;5008094;28;20201;-76
2023/08/12 11:57:36;;;;;;;13.23;10.50;;;25.50;1.00;;;;;;5007720;28;20182;-75
2023/08/12 12:00:08;;;;;;;12.50;10.03;;;25.60;1.00;;;;;;5008065;28;20457;-76
2023/08/12 12:02:38;;;;;;;10.83;7.57;;;25.90;1.00;;;;;;5006295;28;20567;-76
2023/08/12 12:05:11;;;;;;;7.97;5.80;;;26.00;1.00;;;;;;5008310;28;20196;-76
2023/08/12 12:07:38;;;;;;;14.03;5.90;;;26.00;1.00;;;;;;5007758;28;20261;-75
2023/08/12 12:10:05;;;;;;;7.00;4.53;;;25.90;1.00;;;;;;5007472;28;20429;-76
2023/08/12 12:12:33;;;;;;;8.57;4.33;;;25.80;1.00;;;;;;5007941;28;20292;-75
2023/08/12 12:14:59;;;;;;;6.30;4.60;;;25.80;1.00;;;;;;5006441;28;20428;-75
2023/08/12 12:17:24;;;;;;;6.87;4.37;;;26.90;1.00;;;;;;5007689;28;20734;-75
2023/08/12 12:19:55;;;;;;;8.17;4.60;;;29.80;1.00;;;;;;5009358;28;20182;-75
2023/08/12 12:22:27;;;;;;;6.25;4.20;;;31.60;1.00;;;;;;5000831;28;20293;-75
2023/08/12 12:24:52;;;;;;;5.38;4.00;;;32.00;1.00;;;;;;5008921;28;20185;-75
2023/08/12 12:27:18;;;;;;;6.28;4.18;;;31.60;1.00;;;;;;5009174;28;20189;-75
2023/08/12 12:29:43;;;;;;;6.18;4.43;;;30.10;1.00;;;;;;5009343;28;20178;-75
2023/08/12 12:32:09;;;;;;;6.93;4.38;;;29.50;1.00;;;;;;5008013;28;20217;-76
2023/08/12 12:34:35;;;;;;;6.45;4.32;;;29.10;1.00;;;;;;5010025;28;20296;-75
2023/08/12 12:37:01;;;;;;;5.60;4.28;;;29.20;1.00;;;;;;5017546;28;20264;-75
2023/08/12 12:39:26;;;;;;;7.05;4.40;;;31.10;1.00;;;;;;5007918;28;20174;-77
2023/08/12 12:41:52;;;;;;;6.63;3.97;;;32.40;1.00;;;;;;5008327;28;20209;-76
2023/08/12 12:44:18;;;;;;;10.05;3.65;;;33.30;1.00;;;;;;5008123;28;20652;-76
2023/08/12 12:46:43;;;;;;;5.45;3.65;;;34.10;1.00;;;;;;5012004;28;20182;-76
2023/08/12 12:49:08;;;;;;;5.40;3.42;;;34.00;1.00;;;;;;5011599;28;20675;-75
2023/08/12 12:51:34;;;;;;;5.93;4.07;;;33.30;1.00;;;;;;5013207;28;20247;-76